SBOSBO KIN / MKJP
Speedbird OnlineSpeedbird Online KIN / MKJP

Norman Manley International Airport
07:44 24.5°C

Location Kingston, Jamaica
Latitude: 17.935699462890625
Longitude: -76.7874984741211
Web Wikipedia
Altitude 3 Meter / 10 Feet
Distance 7,557 KM / 4,696 Miles
from London.
Time Zone UTC -5 hours (America/Jamaica)
Codes IATA: KIN
ICAO: MKJP
Currency £1 equals JMD 189.72
Runways
RunwayLength (m)Surface
122713Asphalt
302713Asphalt
Radio
TypeDescriptionFrequency
APPMANLEY APP120.6
ATISATIS127.7
GNDGND121.7
TWRMANLEY TWR118.65
Live ATC
METAR MKJP 311200Z 05005KT 9999 FEW022 24/21 Q1016
TAF TAF MKJP 311115Z 3112/0112 34008KT 9999 SCT020 SCT034 BECMG 3115/3117 15020KT BECMG 0101/0103 35008KT FEW022
Weather As Of 31 Jan 2023 07:44
Description Few clouds
Wind 9 km/h from North-East (50°)
Cloud Cover 20%
Precipitation Rain: none, Snow: none
Sunrise 06:40
Sunset 18:00
Lounges Club Kingston , Main Terminal
Rotations During the last 90 days there were
36 flights from LGW
40 flights to LGW
1 flights to IAD



Support Speedbird Online

© 2017-2023 Speedbird Online